createdAt,value
2022-07-29T00:04:10.627Z,2.4
2022-07-29T00:10:02.623Z,2.5
2022-07-29T00:15:53.690Z,2.3
2022-07-29T00:21:45.976Z,2.3
2022-07-29T00:27:34.663Z,2.1
2022-07-29T00:33:24.665Z,2.4
2022-07-29T00:39:18.115Z,2.2
2022-07-29T00:45:09.507Z,2.2
2022-07-29T00:51:01.583Z,2.4
2022-07-29T00:56:52.998Z,2.7
2022-07-29T01:02:43.981Z,2.8
2022-07-29T01:08:37.308Z,2.5
2022-07-29T01:14:29.736Z,2.5
2022-07-29T01:20:21.793Z,2.5
2022-07-29T01:26:22.693Z,2.5
2022-07-29T01:32:33.134Z,2.6
2022-07-29T01:38:26.019Z,2.6
2022-07-29T01:44:19.321Z,2.6
2022-07-29T01:50:12.658Z,2.5
2022-07-29T01:56:05.981Z,2.7
2022-07-29T02:02:01.206Z,2.4
2022-07-29T02:07:50.562Z,2.9
2022-07-29T02:13:42.668Z,2.8
2022-07-29T02:19:35.414Z,2.8
2022-07-29T02:25:43.090Z,2.8
2022-07-29T02:31:33.700Z,2.8
2022-07-29T02:37:25.106Z,2.8
2022-07-29T02:43:16.793Z,2.9
2022-07-29T02:49:08.548Z,3
2022-07-29T02:55:02.983Z,2.9
2022-07-29T03:00:54.399Z,3.1
2022-07-29T03:06:47.195Z,2.8
2022-07-29T03:12:38.376Z,3.1
2022-07-29T03:18:30.562Z,3.1
2022-07-29T03:24:22.445Z,2.9
2022-07-29T03:30:24.752Z,2.9
2022-07-29T03:36:14.107Z,3.1
2022-07-29T03:42:08.536Z,3.3
2022-07-29T03:48:12.440Z,4
2022-07-29T03:54:10.419Z,3.4
2022-07-29T04:00:07.015Z,3.1
2022-07-29T04:05:58.063Z,3.5
2022-07-29T04:12:11.509Z,3.4
2022-07-29T04:18:00.777Z,3.2
2022-07-29T04:23:59.537Z,3.2
2022-07-29T04:30:03.974Z,3.2
2022-07-29T04:36:00.743Z,3.3
2022-07-29T04:41:56.710Z,3.6
2022-07-29T04:47:52.145Z,4.1
2022-07-29T04:53:46.604Z,3.3
2022-07-29T04:59:40.283Z,3.3
2022-07-29T05:05:34.075Z,3.1
2022-07-29T05:11:35.056Z,3.3
2022-07-29T05:17:26.284Z,2.9
2022-07-29T05:23:16.055Z,3.2
2022-07-29T05:29:45.869Z,3.2
2022-07-29T05:35:34.067Z,3.2
2022-07-29T05:41:23.098Z,3.4
2022-07-29T05:47:12.732Z,3.4
2022-07-29T05:53:23.613Z,3.1
2022-07-29T05:59:30.420Z,3
2022-07-29T06:05:23.661Z,3.4
2022-07-29T06:11:15.026Z,3.4
2022-07-29T06:17:08.091Z,3.5
2022-07-29T06:24:09.504Z,3.2
2022-07-29T06:29:59.177Z,3.3
2022-07-29T06:35:59.986Z,3.1
2022-07-29T06:41:52.395Z,3.3
2022-07-29T06:47:44.731Z,3.7
2022-07-29T06:53:37.436Z,3.3
2022-07-29T06:59:41.334Z,3.7
2022-07-29T07:05:33.856Z,3.3
2022-07-29T07:11:24.521Z,3.4
2022-07-29T07:17:17.967Z,3.5
2022-07-29T07:23:06.943Z,3.3
2022-07-29T07:28:56.212Z,3.8
2022-07-29T07:34:46.688Z,3.7
2022-07-29T07:40:36.746Z,3.4
2022-07-29T07:46:29.429Z,3.5
2022-07-29T07:52:20.527Z,3.3
2022-07-29T07:58:13.339Z,2.9
2022-07-29T08:04:13.863Z,3
2022-07-29T08:10:11.684Z,3.3
2022-07-29T08:16:04.744Z,3.1
2022-07-29T08:21:59.786Z,3
2022-07-29T08:27:51.174Z,2.8
2022-07-29T08:33:45.868Z,2.9
2022-07-29T08:39:36.860Z,2.8
2022-07-29T08:45:30.773Z,2.7
2022-07-29T08:51:21.259Z,2.8
2022-07-29T08:57:15.059Z,2.8
2022-07-29T09:03:14.157Z,2.6
2022-07-29T09:09:04.738Z,2.4
2022-07-29T09:14:59.966Z,2.6
2022-07-29T09:20:52.215Z,2.4
2022-07-29T09:26:43.950Z,2.4
2022-07-29T09:32:35.218Z,2.5
2022-07-29T09:38:27.145Z,2.9
2022-07-29T09:44:19.338Z,2.6
2022-07-29T09:50:14.852Z,2.8
2022-07-29T09:56:07.233Z,2.8
2022-07-29T10:02:01.192Z,2.9
2022-07-29T10:08:07.813Z,3
2022-07-29T10:14:00.965Z,2.8
2022-07-29T10:19:53.748Z,2.9
2022-07-29T10:25:57.379Z,3.4
2022-07-29T10:31:49.096Z,2.8
2022-07-29T10:37:51.083Z,3
2022-07-29T10:43:48.478Z,3.1
2022-07-29T10:49:50.069Z,3.1
2022-07-29T10:55:49.564Z,3
2022-07-29T11:02:43.582Z,2.9
2022-07-29T11:08:33.793Z,3.2
2022-07-29T12:07:10.145Z,3.1
2022-07-29T12:13:02.141Z,3.5
2022-07-29T12:18:51.203Z,3.9
2022-07-29T12:24:49.310Z,3.9
2022-07-29T12:30:43.109Z,3.7
2022-07-29T12:36:35.507Z,3.5
2022-07-29T12:42:31.047Z,3.9
2022-07-29T12:48:23.935Z,4
2022-07-29T12:54:14.891Z,3.3
2022-07-29T13:00:06.070Z,3.3
2022-07-29T13:05:57.319Z,3.5
2022-07-29T13:11:54.395Z,3.2
2022-07-29T13:17:54.151Z,3.2
2022-07-29T13:23:45.221Z,3.5
2022-07-29T13:29:38.935Z,2.9
2022-07-29T13:35:41.721Z,3
2022-07-29T13:41:32.257Z,2.7
2022-07-29T13:47:32.039Z,3.3
2022-07-29T13:53:31.801Z,2.6
2022-07-29T13:59:21.861Z,3.1
2022-07-29T14:05:15.757Z,3.5
2022-07-29T14:11:06.900Z,3.1
2022-07-29T14:16:59.050Z,3.1
2022-07-29T14:22:51.909Z,3.3
2022-07-29T14:28:47.937Z,3.3
2022-07-29T14:34:38.210Z,3.2
2022-07-29T14:40:28.650Z,3.5
2022-07-29T14:46:19.777Z,3
2022-07-29T14:52:11.454Z,3.4
2022-07-29T14:58:19.825Z,2.9
2022-07-29T15:04:08.933Z,3.1
2022-07-29T15:10:10.110Z,3
2022-07-29T15:16:06.212Z,3.2
2022-07-29T15:22:01.625Z,3
2022-07-29T15:28:06.237Z,3.3
2022-07-29T15:34:05.100Z,3
2022-07-29T15:40:03.749Z,3.7
2022-07-29T15:45:54.197Z,3.7
2022-07-29T15:51:46.592Z,3.8
2022-07-29T15:57:37.342Z,3.5
2022-07-29T16:03:29.655Z,4
2022-07-29T16:09:20.298Z,4
2022-07-29T16:15:16.055Z,3.7
2022-07-29T16:21:06.353Z,3.9
2022-07-29T16:26:59.820Z,3.6
2022-07-29T16:32:50.860Z,3.9
2022-07-29T17:06:20.869Z,3.6
2022-07-29T17:19:37.576Z,3.4
2022-07-29T17:59:57.395Z,2.6
2022-07-29T20:20:23.881Z,3.9
2022-07-29T20:26:19.600Z,5.8
2022-07-29T20:32:11.306Z,9.1
2022-07-29T20:45:10.243Z,11.9
2022-07-29T20:51:00.398Z,9.8
2022-07-29T20:57:05.203Z,9.5
2022-07-29T21:03:32.534Z,11.4
2022-07-29T21:09:23.605Z,6
2022-07-29T21:15:15.041Z,5.8
2022-07-29T21:21:11.474Z,7.4
2022-07-29T21:27:31.172Z,7
2022-07-29T21:33:22.004Z,7.5
2022-07-29T21:39:15.012Z,10.7
2022-07-29T21:45:14.607Z,9
2022-07-29T21:51:10.928Z,4.8
2022-07-29T21:57:11.326Z,4.4
2022-07-29T22:03:03.135Z,4
2022-07-29T22:08:56.437Z,3.9
2022-07-29T22:14:52.459Z,4.2
2022-07-29T22:20:46.355Z,4.1
2022-07-29T22:26:37.393Z,4
2022-07-29T22:32:29.420Z,4
2022-07-29T22:38:20.425Z,3.7
2022-07-29T22:44:12.542Z,4.1
2022-07-29T22:50:05.020Z,4.2
2022-07-29T22:55:55.998Z,4.9
2022-07-29T23:01:56.560Z,4.5
2022-07-29T23:07:58.340Z,4.5
2022-07-29T23:13:49.275Z,4.8
2022-07-29T23:19:41.559Z,4.8
2022-07-29T23:25:35.936Z,5
2022-07-29T23:31:30.443Z,5
2022-07-29T23:37:21.754Z,4.9
2022-07-29T23:43:15.559Z,5
2022-07-29T23:49:09.124Z,4.9
2022-07-29T23:55:42.630Z,5.2
